createdAt,value
2019-05-22T00:01:48.213Z,11.73
2019-05-22T00:04:22.060Z,12.97
2019-05-22T00:06:51.863Z,14.60
2019-05-22T00:09:27.846Z,12.97
2019-05-22T00:11:58.332Z,12.40
2019-05-22T00:14:27.588Z,12.80
2019-05-22T00:16:56.847Z,14.97
2019-05-22T00:19:26.778Z,16.93
2019-05-22T00:21:59.922Z,15.63
2019-05-22T00:24:29.173Z,13.43
2019-05-22T00:26:57.802Z,16.17
2019-05-22T00:29:28.048Z,15.10
2019-05-22T00:31:56.541Z,14.97
2019-05-22T00:34:25.564Z,15.70
2019-05-22T00:36:54.368Z,14.67
2019-05-22T00:39:23.977Z,13.97
2019-05-22T00:41:52.148Z,15.10
2019-05-22T00:44:20.604Z,14.63
2019-05-22T00:46:51.024Z,17.27
2019-05-22T00:49:21.526Z,14.57
2019-05-22T00:52:21.622Z,15.20
2019-05-22T00:55:05.324Z,15.10
2019-05-22T00:57:47.404Z,14.33
2019-05-22T01:00:37.513Z,14.63
2019-05-22T01:03:06.800Z,15.80
2019-05-22T01:05:36.755Z,14.03
2019-05-22T01:08:05.980Z,17.23
2019-05-22T01:10:34.883Z,14.93
2019-05-22T01:13:03.901Z,15.47
2019-05-22T01:15:35.150Z,14.53
2019-05-22T01:18:07.141Z,15.13
2019-05-22T01:20:36.952Z,15.80
2019-05-22T01:23:06.656Z,16.47
2019-05-22T01:25:36.498Z,18.47
2019-05-22T01:28:06.634Z,16.40
2019-05-22T01:30:56.889Z,15.50
2019-05-22T01:33:30.793Z,17.97
2019-05-22T01:36:33.591Z,18.27
2019-05-22T01:39:27.938Z,16.53
2019-05-22T01:41:58.292Z,16.83
2019-05-22T01:44:28.118Z,21.50
2019-05-22T01:47:00.287Z,19.90
2019-05-22T01:49:30.727Z,17.57
2019-05-22T01:51:59.182Z,18.93
2019-05-22T01:54:27.236Z,16.63
2019-05-22T01:57:03.973Z,17.20
2019-05-22T01:59:33.427Z,15.20
2019-05-22T02:02:01.368Z,15.57
2019-05-22T02:04:30.135Z,15.30
2019-05-22T02:06:58.004Z,22.27
2019-05-22T02:09:34.904Z,16.47
2019-05-22T02:12:25.076Z,16.77
2019-05-22T02:14:55.202Z,15.07
2019-05-22T02:17:30.604Z,15.57
2019-05-22T02:19:59.643Z,16.30
2019-05-22T02:22:29.005Z,14.70
2019-05-22T02:24:57.206Z,15.53
2019-05-22T02:27:25.803Z,18.10
2019-05-22T02:29:54.930Z,15.37
2019-05-22T02:32:25.409Z,15.90
2019-05-22T02:34:55.071Z,16.13
2019-05-22T02:37:24.254Z,14.93
2019-05-22T02:39:53.534Z,15.33
2019-05-22T02:42:28.009Z,17.07
2019-05-22T02:44:57.282Z,14.93
2019-05-22T02:47:26.474Z,15.03
2019-05-22T02:49:57.755Z,15.27
2019-05-22T02:52:26.550Z,14.93
2019-05-22T02:54:56.232Z,15.83
2019-05-22T02:57:27.815Z,16.67
2019-05-22T02:59:56.725Z,16.47
2019-05-22T03:02:25.844Z,15.60
2019-05-22T03:05:03.160Z,16.83
2019-05-22T03:07:31.852Z,16.27
2019-05-22T03:10:01.289Z,17.73
2019-05-22T03:12:31.981Z,15.63
2019-05-22T03:15:01.289Z,18.53
2019-05-22T03:17:31.514Z,18.10
2019-05-22T03:20:03.752Z,20.47
2019-05-22T03:22:39.567Z,17.67
2019-05-22T03:25:13.005Z,19.97
2019-05-22T03:27:43.882Z,17.77
2019-05-22T03:30:26.844Z,19.23
2019-05-22T03:32:56.594Z,18.47
2019-05-22T03:35:27.402Z,21.10
2019-05-22T03:37:56.944Z,21.47
2019-05-22T03:40:28.098Z,18.23
2019-05-22T03:42:56.643Z,34.00
2019-05-22T03:45:25.317Z,21.33
2019-05-22T03:47:54.580Z,24.00
2019-05-22T03:50:23.498Z,22.70
2019-05-22T03:52:54.625Z,21.97
2019-05-22T03:55:24.511Z,23.97
2019-05-22T03:57:52.403Z,23.73
2019-05-22T04:00:24.268Z,25.57
2019-05-22T04:02:54.225Z,23.60
2019-05-22T04:05:23.974Z,25.80
2019-05-22T04:07:54.174Z,27.83
2019-05-22T04:10:25.424Z,28.23
2019-05-22T04:12:55.974Z,31.17
2019-05-22T04:15:24.620Z,27.37
2019-05-22T04:17:56.126Z,27.87
2019-05-22T04:20:25.062Z,26.70
2019-05-22T04:22:58.045Z,28.90
2019-05-22T04:25:26.536Z,30.80
2019-05-22T04:27:54.882Z,27.30
2019-05-22T04:30:23.151Z,31.17
2019-05-22T04:32:51.079Z,34.10
2019-05-22T04:35:20.527Z,28.27
2019-05-22T04:37:49.477Z,27.20
2019-05-22T04:40:59.384Z,25.83
2019-05-22T04:43:34.372Z,28.13
2019-05-22T04:46:04.895Z,26.00
2019-05-22T04:48:35.858Z,25.20
2019-05-22T04:51:25.591Z,28.40
2019-05-22T04:53:55.069Z,23.90
2019-05-22T04:56:23.454Z,25.70
2019-05-22T04:58:52.351Z,23.43
2019-05-22T05:01:20.832Z,21.27
2019-05-22T05:03:49.239Z,21.97
2019-05-22T05:06:18.667Z,23.97
2019-05-22T05:08:47.422Z,23.40
2019-05-22T05:11:15.388Z,20.30
2019-05-22T05:13:43.405Z,21.97
2019-05-22T05:16:11.314Z,18.13
2019-05-22T05:18:39.712Z,19.07
2019-05-22T05:21:07.618Z,18.50
2019-05-22T05:23:35.570Z,16.27
2019-05-22T05:26:03.465Z,19.73
2019-05-22T05:28:33.739Z,15.60
2019-05-22T05:31:01.707Z,42.20
2019-05-22T05:33:33.201Z,54.43
2019-05-22T05:36:01.273Z,12.27
2019-05-22T05:38:36.663Z,11.87
2019-05-22T05:41:05.189Z,10.80
2019-05-22T05:43:33.679Z,8.77
2019-05-22T05:46:01.695Z,9.00
2019-05-22T05:48:32.556Z,7.47
2019-05-22T05:51:39.918Z,7.27
2019-05-22T05:54:15.167Z,6.40
2019-05-22T05:56:49.828Z,5.07
2019-05-22T05:59:19.819Z,6.47
2019-05-22T06:01:55.390Z,5.03
2019-05-22T06:04:35.715Z,4.50
2019-05-22T06:07:17.818Z,5.43
2019-05-22T06:10:10.131Z,6.83
2019-05-22T06:12:38.269Z,5.90
2019-05-22T06:15:07.575Z,4.90
2019-05-22T06:18:29.071Z,4.87
2019-05-22T06:21:03.858Z,5.23
2019-05-22T06:23:55.000Z,4.83
2019-05-22T06:27:07.703Z,4.47
2019-05-22T06:29:49.703Z,4.60
2019-05-22T06:32:59.776Z,7.30
2019-05-22T06:35:33.412Z,4.50
2019-05-22T06:38:10.277Z,6.83
2019-05-22T06:40:38.633Z,4.50
2019-05-22T06:44:00.857Z,4.97
2019-05-22T06:46:45.721Z,5.90
2019-05-22T06:49:35.581Z,5.53
2019-05-22T06:52:05.204Z,5.37
2019-05-22T06:54:33.301Z,5.77
2019-05-22T06:57:01.351Z,5.30
2019-05-22T06:59:29.536Z,5.40
2019-05-22T07:02:01.441Z,5.57
2019-05-22T07:04:29.365Z,7.80
2019-05-22T07:06:57.622Z,6.77
2019-05-22T07:09:25.826Z,5.40
2019-05-22T07:11:54.296Z,5.27
2019-05-22T07:14:23.897Z,6.20
2019-05-22T07:16:52.469Z,5.37
2019-05-22T07:19:21.931Z,5.83
2019-05-22T07:21:50.745Z,5.17
2019-05-22T07:24:20.783Z,5.10
2019-05-22T07:26:49.487Z,4.20
2019-05-22T07:29:18.476Z,4.03
2019-05-22T07:31:46.711Z,3.80
2019-05-22T07:34:14.416Z,4.13
2019-05-22T07:36:43.687Z,4.17
2019-05-22T07:39:11.629Z,4.13
2019-05-22T07:41:39.987Z,4.53
2019-05-22T07:44:08.028Z,4.20
2019-05-22T07:46:36.178Z,4.30
2019-05-22T07:49:05.270Z,4.13
2019-05-22T07:51:48.472Z,4.43
2019-05-22T07:54:04.733Z,4.30
2019-05-22T07:56:36.498Z,3.70
2019-05-22T07:59:04.556Z,5.63
2019-05-22T08:01:33.279Z,3.17
2019-05-22T08:04:02.356Z,5.97
2019-05-22T08:06:31.134Z,3.13
2019-05-22T08:08:59.682Z,3.47
2019-05-22T08:11:27.696Z,3.40
2019-05-22T08:13:57.076Z,4.30
2019-05-22T08:16:26.500Z,3.10
2019-05-22T08:18:54.375Z,4.83
2019-05-22T08:21:23.531Z,3.60
2019-05-22T08:23:54.126Z,4.93
2019-05-22T08:26:23.265Z,4.00
2019-05-22T08:28:51.543Z,3.80
2019-05-22T08:31:22.445Z,3.70
2019-05-22T08:33:50.910Z,4.50
2019-05-22T08:36:19.192Z,5.03
2019-05-22T08:38:47.554Z,4.30
2019-05-22T08:41:19.203Z,4.27
2019-05-22T08:44:13.587Z,4.57
2019-05-22T08:46:18.243Z,7.60
2019-05-22T08:48:48.686Z,4.30
2019-05-22T08:51:16.770Z,4.43
2019-05-22T08:53:48.094Z,4.80
2019-05-22T08:56:15.243Z,4.03
2019-05-22T08:58:44.479Z,4.20
2019-05-22T09:01:13.808Z,4.30
2019-05-22T09:03:42.133Z,3.83
2019-05-22T09:06:10.455Z,5.63
2019-05-22T09:08:38.215Z,3.63
2019-05-22T09:11:06.244Z,4.23
2019-05-22T09:13:34.207Z,3.80
2019-05-22T09:16:02.501Z,4.20
2019-05-22T09:18:31.329Z,3.83
2019-05-22T09:20:59.818Z,4.20
2019-05-22T09:23:27.877Z,3.80
2019-05-22T09:25:58.618Z,4.07
2019-05-22T09:28:26.582Z,4.43
2019-05-22T09:30:54.415Z,4.30
2019-05-22T09:33:22.613Z,5.50
2019-05-22T09:35:50.581Z,6.80
2019-05-22T09:38:19.420Z,5.13
2019-05-22T09:40:48.606Z,5.43
2019-05-22T09:43:16.837Z,5.83
2019-05-22T09:45:44.535Z,7.13
2019-05-22T09:48:12.413Z,5.90
2019-05-22T09:50:40.416Z,6.07
2019-05-22T09:53:08.749Z,5.20
2019-05-22T09:55:37.271Z,5.90
2019-05-22T09:58:06.384Z,6.70
2019-05-22T10:00:35.618Z,5.80
2019-05-22T10:03:05.187Z,10.90
2019-05-22T10:05:33.240Z,6.00
2019-05-22T10:08:02.517Z,4.93
2019-05-22T10:10:30.795Z,5.53
2019-05-22T10:12:58.535Z,6.03
2019-05-22T10:15:27.339Z,6.80
2019-05-22T10:17:55.641Z,7.80
2019-05-22T10:20:23.472Z,8.83
2019-05-22T10:22:51.362Z,11.57
2019-05-22T10:25:19.242Z,9.30
2019-05-22T10:27:47.394Z,9.50
2019-05-22T10:30:17.976Z,10.57
2019-05-22T10:32:45.750Z,11.77
2019-05-22T10:35:13.596Z,10.87
2019-05-22T10:37:41.589Z,8.93
2019-05-22T10:40:13.124Z,12.40
2019-05-22T10:42:45.034Z,10.70
2019-05-22T10:45:13.083Z,11.73
2019-05-22T10:47:41.702Z,11.10
2019-05-22T10:50:09.999Z,12.20
2019-05-22T10:52:38.174Z,13.33
2019-05-22T10:55:07.659Z,14.23
2019-05-22T10:57:40.455Z,14.77
2019-05-22T11:00:08.658Z,16.90
2019-05-22T11:02:36.462Z,14.73
2019-05-22T11:05:06.869Z,16.70
2019-05-22T11:07:35.213Z,17.57
2019-05-22T11:10:04.173Z,17.10
2019-05-22T11:12:32.055Z,16.90
2019-05-22T11:15:00.886Z,16.57
2019-05-22T11:17:28.899Z,17.60
2019-05-22T11:19:57.748Z,16.50
2019-05-22T11:22:25.622Z,17.53
2019-05-22T11:24:53.582Z,18.37
2019-05-22T11:27:22.701Z,16.53
2019-05-22T11:29:51.268Z,19.27
2019-05-22T11:32:20.550Z,15.47
2019-05-22T11:34:48.425Z,16.17
2019-05-22T11:37:16.435Z,15.90
2019-05-22T11:39:45.232Z,16.57
2019-05-22T11:42:13.519Z,16.93
2019-05-22T11:44:41.670Z,13.70
2019-05-22T11:47:10.633Z,16.40
2019-05-22T11:49:38.979Z,17.70
2019-05-22T11:52:06.894Z,12.20
2019-05-22T11:54:34.897Z,15.30
2019-05-22T11:57:03.108Z,16.40
2019-05-22T11:59:32.095Z,15.57
2019-05-22T12:02:00.097Z,15.03
2019-05-22T12:04:45.749Z,16.93
2019-05-22T12:06:58.969Z,16.53
2019-05-22T12:09:27.405Z,19.53
2019-05-22T12:11:55.366Z,14.80
2019-05-22T12:14:23.577Z,17.33
2019-05-22T12:16:53.280Z,16.40
2019-05-22T12:19:22.415Z,20.40
2019-05-22T12:21:50.309Z,19.53
2019-05-22T12:24:26.961Z,18.90
2019-05-22T12:26:47.979Z,21.43
2019-05-22T12:29:17.432Z,19.40
2019-05-22T12:31:46.788Z,23.67
2019-05-22T12:34:14.593Z,20.30
2019-05-22T12:36:43.335Z,18.60
2019-05-22T12:39:11.821Z,19.93
2019-05-22T12:41:40.500Z,18.40
2019-05-22T12:44:08.317Z,15.30
2019-05-22T12:46:37.004Z,18.53
2019-05-22T12:49:08.842Z,18.40
2019-05-22T12:51:36.659Z,15.87
2019-05-22T12:54:04.984Z,9.13
2019-05-22T12:56:33.570Z,3.00
2019-05-22T12:59:03.649Z,2.83
2019-05-22T13:01:33.494Z,1.70
2019-05-22T13:04:03.528Z,2.33
2019-05-22T13:06:31.558Z,1.80
2019-05-22T13:09:00.800Z,5.53
2019-05-22T13:11:28.990Z,2.23
2019-05-22T13:13:56.991Z,3.50
2019-05-22T13:16:26.304Z,2.43
2019-05-22T13:18:55.462Z,4.37
2019-05-22T13:21:30.387Z,2.30
2019-05-22T13:24:01.637Z,2.47
2019-05-22T13:26:31.217Z,2.80
2019-05-22T13:28:59.249Z,2.17
2019-05-22T13:31:27.327Z,2.00
2019-05-22T13:33:56.366Z,2.13
2019-05-22T13:36:24.606Z,2.10
2019-05-22T13:38:53.167Z,2.40
2019-05-22T13:41:21.561Z,2.20
2019-05-22T13:43:50.003Z,2.40
2019-05-22T13:46:18.320Z,2.13
2019-05-22T13:48:46.277Z,3.40
2019-05-22T13:51:14.654Z,2.00
2019-05-22T13:53:43.030Z,2.40
2019-05-22T13:56:11.618Z,4.70
2019-05-22T13:58:40.389Z,2.80
2019-05-22T14:01:08.909Z,2.70
2019-05-22T14:03:37.539Z,3.50
2019-05-22T14:06:05.521Z,3.90
2019-05-22T14:08:33.750Z,6.10
2019-05-22T14:11:02.481Z,2.63
2019-05-22T14:13:31.259Z,6.80
2019-05-22T14:15:59.261Z,3.00
2019-05-22T14:18:27.526Z,4.20
2019-05-22T14:20:55.630Z,3.53
2019-05-22T14:23:24.203Z,2.40
2019-05-22T14:25:52.547Z,3.43
2019-05-22T14:28:22.022Z,2.90
2019-05-22T14:30:51.714Z,3.10
2019-05-22T14:33:19.667Z,2.87
2019-05-22T14:35:50.494Z,2.93
2019-05-22T14:38:19.080Z,4.87
2019-05-22T14:40:47.050Z,3.40
2019-05-22T14:43:15.166Z,3.80
2019-05-22T14:45:43.087Z,3.43
2019-05-22T14:48:12.162Z,3.57
2019-05-22T14:50:40.255Z,3.90
2019-05-22T14:53:09.836Z,4.03
2019-05-22T14:55:38.364Z,3.40
2019-05-22T14:58:07.561Z,3.57
2019-05-22T15:00:36.162Z,6.03
2019-05-22T15:03:08.099Z,3.80
2019-05-22T15:05:36.294Z,4.47
2019-05-22T15:08:06.273Z,4.37
2019-05-22T15:10:35.967Z,7.60
2019-05-22T15:13:05.154Z,3.80
2019-05-22T15:15:33.679Z,8.73
2019-05-22T15:18:01.498Z,3.60
2019-05-22T15:20:41.642Z,4.10
2019-05-22T15:23:09.905Z,3.67
2019-05-22T15:25:37.838Z,3.33
2019-05-22T15:28:06.726Z,4.57
2019-05-22T15:30:35.008Z,3.30
2019-05-22T15:33:03.772Z,4.33
2019-05-22T15:35:32.719Z,3.13
2019-05-22T15:38:02.680Z,3.43
2019-05-22T15:40:30.928Z,3.40
2019-05-22T15:42:59.544Z,4.13
2019-05-22T15:45:28.792Z,3.23
2019-05-22T15:48:01.761Z,3.47
2019-05-22T15:50:33.448Z,2.67
2019-05-22T15:53:09.589Z,2.63
2019-05-22T15:55:38.648Z,3.83
2019-05-22T15:58:07.455Z,2.60
2019-05-22T16:00:37.090Z,3.27
2019-05-22T16:03:10.252Z,2.53
2019-05-22T16:05:39.859Z,2.60
2019-05-22T16:08:09.161Z,2.47
2019-05-22T16:10:38.743Z,2.70
2019-05-22T16:13:08.585Z,3.30
2019-05-22T16:15:38.289Z,2.53
2019-05-22T16:18:11.816Z,4.53
2019-05-22T16:20:38.033Z,2.50
2019-05-22T16:23:07.931Z,3.03
2019-05-22T16:25:36.896Z,4.37
2019-05-22T16:28:04.801Z,2.90
2019-05-22T16:30:33.458Z,3.83
2019-05-22T16:33:03.085Z,3.13
2019-05-22T16:35:31.158Z,2.53
2019-05-22T16:37:59.595Z,3.30
2019-05-22T16:40:29.387Z,3.50
2019-05-22T16:42:59.434Z,4.07
2019-05-22T16:45:29.609Z,3.40
2019-05-22T16:48:00.151Z,3.07
2019-05-22T16:50:28.826Z,3.67
2019-05-22T16:52:59.324Z,2.93
2019-05-22T16:55:29.673Z,4.70
2019-05-22T16:57:57.700Z,5.70
2019-05-22T17:00:27.787Z,4.30
2019-05-22T17:02:56.224Z,6.27
2019-05-22T17:05:24.490Z,3.80
2019-05-22T17:07:52.908Z,3.70
2019-05-22T17:10:23.759Z,4.40
2019-05-22T17:12:52.657Z,3.23
2019-05-22T17:15:21.379Z,3.87
2019-05-22T17:17:49.566Z,4.33
2019-05-22T17:20:20.355Z,4.50
2019-05-22T17:22:48.266Z,3.40
2019-05-22T17:25:19.135Z,3.10
2019-05-22T17:27:48.779Z,3.80
2019-05-22T17:30:20.663Z,3.20
2019-05-22T17:32:48.206Z,3.20
2019-05-22T17:35:17.958Z,4.93
2019-05-22T17:37:46.647Z,5.67
2019-05-22T17:40:16.716Z,3.17
2019-05-22T17:42:47.512Z,2.90
2019-05-22T17:45:19.683Z,2.83
2019-05-22T17:47:47.820Z,4.30
2019-05-22T17:50:27.016Z,3.30
2019-05-22T17:52:48.511Z,3.50
2019-05-22T17:55:18.693Z,4.40
2019-05-22T17:57:46.662Z,3.10
2019-05-22T18:00:37.306Z,4.53
2019-05-22T18:03:06.009Z,3.77
2019-05-22T18:05:36.062Z,5.07
2019-05-22T18:08:04.979Z,4.87
2019-05-22T18:10:39.670Z,4.43
2019-05-22T18:13:04.845Z,4.20
2019-05-22T18:15:32.999Z,4.10
2019-05-22T18:18:01.499Z,3.30
2019-05-22T18:20:41.864Z,4.07
2019-05-22T18:22:59.586Z,6.80
2019-05-22T18:25:27.477Z,3.97
2019-05-22T18:27:55.794Z,4.93
2019-05-22T18:30:25.425Z,4.80
2019-05-22T18:32:53.517Z,3.87
2019-05-22T18:35:21.472Z,4.30
2019-05-22T18:37:49.324Z,5.47
2019-05-22T18:40:17.247Z,4.23
2019-05-22T18:42:45.594Z,3.67
2019-05-22T18:45:13.694Z,3.40
2019-05-22T18:47:42.096Z,4.47
2019-05-22T18:50:10.556Z,2.90
2019-05-22T18:52:41.641Z,5.10
2019-05-22T18:55:09.767Z,3.13
2019-05-22T18:57:38.667Z,4.67
2019-05-22T19:00:07.113Z,2.73
2019-05-22T19:02:35.199Z,5.03
2019-05-22T19:05:03.560Z,5.70
2019-05-22T19:07:31.681Z,3.00
2019-05-22T19:09:59.583Z,5.27
2019-05-22T19:12:27.766Z,3.07
2019-05-22T19:14:55.477Z,4.30
2019-05-22T19:17:23.645Z,2.87
2019-05-22T19:19:51.620Z,3.33
2019-05-22T19:22:21.582Z,4.53
2019-05-22T19:24:49.423Z,3.73
2019-05-22T19:27:17.479Z,2.70
2019-05-22T19:29:45.210Z,3.60
2019-05-22T19:32:13.196Z,2.53
2019-05-22T19:34:41.100Z,4.20
2019-05-22T19:37:11.091Z,4.30
2019-05-22T19:39:40.144Z,3.03
2019-05-22T19:42:10.052Z,3.23
2019-05-22T19:44:38.304Z,3.77
2019-05-22T19:47:08.916Z,2.57
2019-05-22T19:49:36.959Z,2.80
2019-05-22T19:52:05.869Z,2.60
2019-05-22T19:54:34.886Z,3.50
2019-05-22T19:57:02.776Z,2.60
2019-05-22T19:59:31.108Z,4.03
2019-05-22T20:01:59.828Z,3.37
2019-05-22T20:04:28.297Z,3.20
2019-05-22T20:06:58.612Z,3.00
2019-05-22T20:09:26.537Z,2.90
2019-05-22T20:11:54.411Z,2.73
2019-05-22T20:14:22.419Z,2.60
2019-05-22T20:16:50.628Z,3.20
2019-05-22T20:19:19.040Z,3.93
2019-05-22T20:21:47.428Z,2.47
2019-05-22T20:24:16.001Z,4.33
2019-05-22T20:26:44.086Z,2.60
2019-05-22T20:29:14.013Z,3.30
2019-05-22T20:31:42.048Z,3.57
2019-05-22T20:34:10.009Z,3.90
2019-05-22T20:36:39.243Z,2.87
2019-05-22T20:39:08.853Z,2.73
2019-05-22T20:41:37.716Z,2.70
2019-05-22T20:44:07.507Z,5.73
2019-05-22T20:46:37.971Z,3.90
2019-05-22T20:49:08.478Z,2.43
2019-05-22T20:51:36.959Z,2.53
2019-05-22T20:54:05.813Z,3.30
2019-05-22T20:56:34.758Z,2.63
2019-05-22T20:59:03.014Z,2.90
2019-05-22T21:01:33.048Z,2.87
2019-05-22T21:04:03.818Z,3.77
2019-05-22T21:06:36.938Z,3.83
2019-05-22T21:09:06.271Z,3.10
2019-05-22T21:11:34.929Z,3.17
2019-05-22T21:14:04.118Z,3.57
2019-05-22T21:16:33.677Z,3.00
2019-05-22T21:19:01.765Z,2.87
2019-05-22T21:21:29.700Z,3.50
2019-05-22T21:24:10.071Z,3.77
2019-05-22T21:26:28.221Z,2.87
2019-05-22T21:28:57.098Z,3.80
2019-05-22T21:31:25.028Z,2.83
2019-05-22T21:33:53.354Z,2.67
2019-05-22T21:36:22.592Z,2.60
2019-05-22T21:38:50.873Z,4.27
2019-05-22T21:41:20.686Z,2.90
2019-05-22T21:43:48.741Z,2.97
2019-05-22T21:46:16.947Z,3.33
2019-05-22T21:48:46.864Z,3.40
2019-05-22T21:51:15.204Z,3.83
2019-05-22T21:53:43.921Z,4.23
2019-05-22T21:56:11.808Z,2.60
2019-05-22T21:58:40.415Z,2.73
2019-05-22T22:01:23.643Z,3.30
2019-05-22T22:03:58.236Z,2.77
2019-05-22T22:06:27.795Z,2.90
2019-05-22T22:08:56.485Z,2.70
2019-05-22T22:11:27.193Z,3.40
2019-05-22T22:13:55.424Z,2.80
2019-05-22T22:16:24.542Z,3.60
2019-05-22T22:18:54.591Z,2.70
2019-05-22T22:21:22.490Z,2.50
2019-05-22T22:23:51.715Z,4.60
2019-05-22T22:26:25.747Z,3.07
2019-05-22T22:28:50.218Z,2.93
2019-05-22T22:31:21.371Z,2.93
2019-05-22T22:33:53.844Z,3.93
2019-05-22T22:36:22.094Z,4.63
2019-05-22T22:38:51.304Z,3.00
2019-05-22T22:41:19.529Z,3.53
2019-05-22T22:43:48.417Z,2.80
2019-05-22T22:46:42.587Z,2.90
2019-05-22T22:49:15.623Z,3.50
2019-05-22T22:51:45.336Z,2.97
2019-05-22T22:54:13.957Z,3.73
2019-05-22T22:56:43.297Z,3.03
2019-05-22T22:59:12.034Z,3.70
2019-05-22T23:01:42.611Z,2.63
2019-05-22T23:04:12.031Z,3.53
2019-05-22T23:06:40.938Z,2.83
2019-05-22T23:09:10.756Z,3.37
2019-05-22T23:11:39.919Z,4.20
2019-05-22T23:14:08.362Z,2.97
2019-05-22T23:16:37.003Z,3.57
2019-05-22T23:19:37.736Z,2.80
2019-05-22T23:22:05.663Z,3.10
2019-05-22T23:24:37.378Z,2.93
2019-05-22T23:27:06.211Z,3.40
2019-05-22T23:29:35.639Z,3.53
2019-05-22T23:32:06.441Z,3.23
2019-05-22T23:34:34.604Z,2.93
2019-05-22T23:37:03.244Z,3.70
2019-05-22T23:39:32.815Z,3.20
2019-05-22T23:42:09.688Z,3.43
2019-05-22T23:44:39.333Z,3.20
2019-05-22T23:47:08.500Z,3.07
2019-05-22T23:49:39.081Z,5.50
2019-05-22T23:52:08.065Z,2.97
2019-05-22T23:54:36.830Z,4.57
2019-05-22T23:57:05.051Z,2.83
2019-05-22T23:59:35.621Z,3.13
